UAAA

Almaty Airport

Almaty, Kazakhstan
TAF UAAA 171100Z 1712/1812 16004MPS 2000 BR FU BKN020CB BKN100 TXM00/1808Z TNM04/1801Z TEMPO 1712/1718 0300 FZFG BKN004 FM171800 32005MPS 1500 -SHSN BR BKN011CB OVC100 TEMPO 1718/1806 26008MPS 0600 SHSN FZFG BKN003 OVC010CB
Issued Valid From Valid To
Dec-17 @ 11:00 UTC
(an hour ago)
Dec-17 @ 12:00 UTC
(7 minutes ago)
Dec-18 @ 12:00 UTC
(in 24 hours)
Dec-17 @ 12:00 to Dec-17 @ 18:00
TAF UAAA 171100Z 1712/1812 16004MPS 2000 BR FU BKN020CB BKN100 TXM00/1808Z TNM04/1801Z
Wind Visibility Clouds Conditions
160° at 8 knots 1,996 meters
  • Broken at 2,000' AGL
  • Broken at 10,000' AGL
  • Mist
  • Smoke
Temporary Dec-17 @ 12:00 to Dec-17 @ 18:00
TEMPO 1712/1718 0300 FZFG BKN004
Visibility Clouds Conditions
306 meters
  • Broken at 400' AGL
  • Freezing
  • Fog
Temporary Dec-17 @ 18:00 to Dec-18 @ 06:00
TEMPO 1718/1806 26008MPS 0600 SHSN FZFG BKN003 OVC010CB
Wind Visibility Clouds Conditions
260° at 16 knots 595 meters
  • Broken at 300' AGL
  • Overcast at 1,000' AGL
  • Snow
  • Freezing
  • Fog
From Dec-17 @ 18:00 to Dec-18 @ 12:00
FM171800 32005MPS 1500 -SHSN BR BKN011CB OVC100
Wind Visibility Clouds Conditions
320° at 10 knots 1,497 meters
  • Broken at 1,100' AGL
  • Overcast at 10,000' AGL
  • Light Snow
  • Mist
TAF UAAA 171100Z 1712/1812 16004MPS 2000 BR FU BKN020CB BKN100 TXM00/1808Z TNM04/1801Z TEMPO 1712/1718 0300 FZFG BKN004 FM171800 32005MPS 1500 -SHSN BR BKN011CB OVC100 TEMPO 1718/1806 26008MPS 0600 SHSN FZFG BKN003 OVC010CB
Issued Dec-17 @ 11:00 UTC
(an hour ago)
Valid From Dec-17 @ 12:00 UTC
(7 minutes ago)
Valid To Dec-18 @ 12:00 UTC
(in 24 hours)
Dec-17 @ 12:00 - Dec-17 @ 18:00
Wind Visibility
160° at 8 knots 1,996 meters
Clouds
  • Broken at 2,000' AGL
  • Broken at 10,000' AGL
Conditions
  • Mist
  • Smoke
Temporary Dec-17 @ 12:00 - Dec-17 @ 18:00
Clouds
  • Broken at 400' AGL
Conditions
  • Freezing
  • Fog
Temporary Dec-17 @ 18:00 - Dec-18 @ 06:00
Wind Visibility
260° at 16 knots 595 meters
Clouds
  • Broken at 300' AGL
  • Overcast at 1,000' AGL
Conditions
  • Snow
  • Freezing
  • Fog
From Dec-17 @ 18:00 - Dec-18 @ 12:00
Wind Visibility
320° at 10 knots 1,497 meters
Clouds
  • Broken at 1,100' AGL
  • Overcast at 10,000' AGL
Conditions
  • Light Snow
  • Mist